Time,TemperatureF,DewpointF,PressureIn,WindDirection,WindDirectionDegrees,WindSpeedMPH,WindSpeedGustMPH,Humidity,HourlyPrecipIn,Conditions,Clouds,dailyrainin,SolarRadiationWatts/m^2,SoftwareType,DateUTC
2013-10-05 00:00:00,39.3,33.3,30.43,NE,39,0.0,0.0,79,0.00,,,0.00,0,Wunderground v.1.15,2013-10-05 07:00:00,
2013-10-05 00:10:00,39.8,33.5,30.42,NE,51,0.0,0.0,78,0.00,,,0.00,0,Wunderground v.1.15,2013-10-05 07:10:00,
2013-10-05 00:15:00,39.6,33.6,30.42,NE,55,0.0,0.0,79,0.00,,,0.00,0,Wunderground v.1.15,2013-10-05 07:15:00,
2013-10-05 00:20:00,39.6,33.6,30.42,NE,55,0.0,0.0,79,0.00,,,0.00,0,Wunderground v.1.15,2013-10-05 07:20:00,
2013-10-05 00:25:00,39.7,34.0,30.42,ENE,57,0.0,0.0,80,0.00,,,0.00,0,Wunderground v.1.15,2013-10-05 07:25:00,
2013-10-05 00:35:00,40.0,34.3,30.43,ENE,57,0.0,0.0,80,0.00,,,0.00,0,Wunderground v.1.15,2013-10-05 07:35:00,
2013-10-05 00:40:00,40.0,34.3,30.43,ENE,57,0.0,0.0,80,0.00,,,0.00,0,Wunderground v.1.15,2013-10-05 07:40:00,
2013-10-05 00:45:00,39.6,33.9,30.43,ENE,57,0.0,0.0,80,0.00,,,0.00,0,Wunderground v.1.15,2013-10-05 07:45:00,
2013-10-05 00:50:00,38.9,33.6,30.43,ENE,57,0.0,0.0,81,0.00,,,0.00,0,Wunderground v.1.15,2013-10-05 07:50:00,
2013-10-05 00:55:00,38.6,33.6,30.43,ENE,57,0.0,0.0,82,0.00,,,0.00,0,Wunderground v.1.15,2013-10-05 07:55:00,
2013-10-05 01:00:00,38.3,33.3,30.43,ENE,57,0.0,0.0,82,0.00,,,0.00,0,Wunderground v.1.15,2013-10-05 08:00:00,
2013-10-05 01:09:00,37.3,32.9,30.43,South,190,2.0,5.0,84,0.00,,,0.00,0,Wunderground v.1.15,2013-10-05 08:09:00,
2013-10-05 01:14:00,37.2,33.1,30.43,South,188,4.0,5.0,85,0.00,,,0.00,0,Wunderground v.1.15,2013-10-05 08:14:00,
2013-10-05 01:19:00,37.2,32.8,30.43,South,187,3.0,4.0,84,0.00,,,0.00,0,Wunderground v.1.15,2013-10-05 08:19:00,
2013-10-05 01:25:00,37.1,32.7,30.43,South,187,3.0,4.0,84,0.00,,,0.00,0,Wunderground v.1.15,2013-10-05 08:25:00,
2013-10-05 01:30:00,37.3,32.9,30.43,South,187,2.0,2.0,84,0.00,,,0.00,0,Wunderground v.1.15,2013-10-05 08:30:00,
2013-10-05 01:35:00,37.3,32.9,30.43,South,185,1.0,2.0,84,0.00,,,0.00,0,Wunderground v.1.15,2013-10-05 08:35:00,
2013-10-05 01:40:00,37.3,32.9,30.43,South,184,1.0,1.0,84,0.00,,,0.00,0,Wunderground v.1.15,2013-10-05 08:40:00,
2013-10-05 01:45:00,37.2,32.5,30.43,South,184,2.0,4.0,83,0.00,,,0.00,0,Wunderground v.1.15,2013-10-05 08:45:00,
2013-10-05 01:50:00,37.1,32.7,30.43,South,184,3.0,5.0,84,0.00,,,0.00,0,Wunderground v.1.15,2013-10-05 08:50:00,
2013-10-05 01:55:00,36.9,32.5,30.43,South,184,4.0,6.0,84,0.00,,,0.00,0,Wunderground v.1.15,2013-10-05 08:55:00,
2013-10-05 02:00:00,36.7,32.3,30.43,South,184,4.0,4.0,84,0.00,,,0.00,0,Wunderground v.1.15,2013-10-05 09:00:00,
2013-10-05 02:10:00,36.2,32.1,30.43,South,184,3.0,3.0,85,0.00,,,0.00,0,Wunderground v.1.15,2013-10-05 09:10:00,
2013-10-05 02:15:00,35.9,31.8,30.43,South,184,3.0,3.0,85,0.00,,,0.00,0,Wunderground v.1.15,2013-10-05 09:15:00,
2013-10-05 02:20:00,35.8,32.0,30.43,South,184,3.0,3.0,86,0.00,,,0.00,0,Wunderground v.1.15,2013-10-05 09:20:00,
2013-10-05 02:25:00,35.7,31.9,30.43,South,184,3.0,4.0,86,0.00,,,0.00,0,Wunderground v.1.15,2013-10-05 09:25:00,
2013-10-05 02:30:00,35.5,31.7,30.43,South,184,3.0,3.0,86,0.00,,,0.00,0,Wunderground v.1.15,2013-10-05 09:30:00,
2013-10-05 02:40:00,35.2,31.7,30.42,South,184,1.0,1.0,87,0.00,,,0.00,0,Wunderground v.1.15,2013-10-05 09:40:00,
2013-10-05 02:45:00,35.1,31.6,30.42,South,184,0.0,1.0,87,0.00,,,0.00,0,Wunderground v.1.15,2013-10-05 09:45:00,
2013-10-05 02:50:00,34.9,31.4,30.42,South,184,1.0,4.0,87,0.00,,,0.00,0,Wunderground v.1.15,2013-10-05 09:50:00,
2013-10-05 02:55:00,34.9,31.4,30.42,South,185,3.0,4.0,87,0.00,,,0.00,0,Wunderground v.1.15,2013-10-05 09:55:00,
2013-10-05 03:00:00,35.1,31.3,30.42,South,186,4.0,5.0,86,0.00,,,0.00,0,Wunderground v.1.15,2013-10-05 10:00:00,
2013-10-05 03:10:00,35.4,31.3,30.42,South,188,4.0,4.0,85,0.00,,,0.00,0,Wunderground v.1.15,2013-10-05 10:10:00,
2013-10-05 03:15:00,35.3,31.2,30.42,South,189,4.0,5.0,85,0.00,,,0.00,0,Wunderground v.1.15,2013-10-05 10:15:00,
2013-10-05 03:20:00,35.3,31.2,30.42,SSW,192,4.0,4.0,85,0.00,,,0.00,0,Wunderground v.1.15,2013-10-05 10:20:00,
2013-10-05 03:25:00,35.3,31.2,30.42,SSW,195,4.0,4.0,85,0.00,,,0.00,0,Wunderground v.1.15,2013-10-05 10:25:00,
2013-10-05 03:30:00,35.1,30.8,30.42,SSW,196,5.0,5.0,84,0.00,,,0.00,0,Wunderground v.1.15,2013-10-05 10:30:00,
2013-10-05 03:35:00,35.0,30.9,30.42,SSW,196,5.0,5.0,85,0.00,,,0.00,0,Wunderground v.1.15,2013-10-05 10:35:00,
2013-10-05 03:45:00,35.0,30.9,30.42,SSW,197,4.0,4.0,85,0.00,,,0.00,0,Wunderground v.1.15,2013-10-05 10:45:00,
2013-10-05 03:50:00,34.9,30.8,30.42,SSW,197,4.0,4.0,85,0.00,,,0.00,0,Wunderground v.1.15,2013-10-05 10:50:00,
2013-10-05 03:55:00,34.6,30.3,30.42,SSW,197,4.0,4.0,84,0.00,,,0.00,0,Wunderground v.1.15,2013-10-05 10:55:00,
2013-10-05 04:00:00,34.3,30.3,30.42,SSW,197,4.0,5.0,85,0.00,,,0.00,0,Wunderground v.1.15,2013-10-05 11:00:00,
2013-10-05 04:10:00,34.1,30.1,30.42,SSW,197,5.0,5.0,85,0.00,,,0.00,0,Wunderground v.1.15,2013-10-05 11:10:00,
2013-10-05 04:20:00,33.8,29.8,30.42,SSW,197,2.0,2.0,85,0.00,,,0.00,0,Wunderground v.1.15,2013-10-05 11:20:00,
2013-10-05 04:25:00,33.4,29.4,30.42,SSW,197,1.0,2.0,85,0.00,,,0.00,0,Wunderground v.1.15,2013-10-05 11:25:00,
2013-10-05 04:30:00,33.2,29.5,30.41,SSW,197,0.0,0.0,86,0.00,,,0.00,0,Wunderground v.1.15,2013-10-05 11:30:00,
2013-10-05 04:35:00,33.4,29.7,30.41,SSW,197,0.0,0.0,86,0.00,,,0.00,0,Wunderground v.1.15,2013-10-05 11:35:00,
2013-10-05 04:40:00,33.3,29.6,30.41,SSW,196,0.0,0.0,86,0.00,,,0.00,0,Wunderground v.1.15,2013-10-05 11:40:00,
2013-10-05 04:50:00,32.7,29.0,30.41,SSW,196,0.0,0.0,86,0.00,,,0.00,0,Wunderground v.1.15,2013-10-05 11:50:00,
2013-10-05 04:55:00,32.3,28.9,30.41,SSW,196,0.0,0.0,87,0.00,,,0.00,0,Wunderground v.1.15,2013-10-05 11:55:00,
2013-10-05 05:00:00,31.9,28.5,30.41,SSW,196,0.0,2.0,87,0.00,,,0.00,0,Wunderground v.1.15,2013-10-05 12:00:00,
2013-10-05 05:10:00,31.4,28.3,30.41,SSW,196,4.0,4.0,88,0.00,,,0.00,0,Wunderground v.1.15,2013-10-05 12:10:00,
2013-10-05 05:15:00,31.6,28.7,30.40,SSW,196,5.0,6.0,89,0.00,,,0.00,0,Wunderground v.1.15,2013-10-05 12:15:00,
2013-10-05 05:24:00,31.9,28.8,30.41,SSW,196,5.0,6.0,88,0.00,,,0.00,0,Wunderground v.1.15,2013-10-05 12:24:00,
2013-10-05 05:29:00,31.9,28.8,30.41,SSW,200,5.0,7.0,88,0.00,,,0.00,0,Wunderground v.1.15,2013-10-05 12:29:00,
2013-10-05 05:35:00,31.9,28.8,30.41,SSW,202,6.0,8.0,88,0.00,,,0.00,0,Wunderground v.1.15,2013-10-05 12:35:00,
2013-10-05 05:40:00,32.0,28.8,30.41,SSW,206,7.0,9.0,88,0.00,,,0.00,0,Wunderground v.1.15,2013-10-05 12:40:00,
2013-10-05 05:45:00,32.4,29.2,30.40,SSW,204,7.0,9.0,88,0.00,,,0.00,0,Wunderground v.1.15,2013-10-05 12:45:00,
2013-10-05 05:50:00,32.8,29.4,30.40,SSW,196,7.0,7.0,87,0.00,,,0.00,0,Wunderground v.1.15,2013-10-05 12:50:00,
2013-10-05 05:55:00,33.0,29.3,30.40,SSW,200,6.0,8.0,86,0.00,,,0.00,0,Wunderground v.1.15,2013-10-05 12:55:00,
2013-10-05 06:00:00,33.2,29.2,30.40,SSW,205,8.0,8.0,85,0.00,,,0.00,0,Wunderground v.1.15,2013-10-05 13:00:00,
2013-10-05 06:09:00,33.5,29.2,30.40,SSW,205,7.0,8.0,84,0.00,,,0.00,0,Wunderground v.1.15,2013-10-05 13:09:00,
2013-10-05 06:14:00,33.5,29.2,30.40,SSW,209,7.0,8.0,84,0.00,,,0.00,0,Wunderground v.1.15,2013-10-05 13:14:00,
2013-10-05 06:19:00,33.6,29.3,30.40,SSW,211,7.0,7.0,84,0.00,,,0.00,0,Wunderground v.1.15,2013-10-05 13:19:00,
2013-10-05 06:25:00,33.8,29.2,30.40,SSW,207,8.0,9.0,83,0.00,,,0.00,0,Wunderground v.1.15,2013-10-05 13:25:00,
2013-10-05 06:30:00,33.9,29.3,30.40,SSW,201,8.0,8.0,83,0.00,,,0.00,0,Wunderground v.1.15,2013-10-05 13:30:00,
2013-10-05 06:35:00,33.9,29.0,30.40,SSW,202,7.0,8.0,82,0.00,,,0.00,0,Wunderground v.1.15,2013-10-05 13:35:00,
2013-10-05 06:40:00,33.9,29.0,30.40,SSW,207,7.0,9.0,82,0.00,,,0.00,0,Wunderground v.1.15,2013-10-05 13:40:00,
2013-10-05 06:45:00,33.9,29.0,30.40,SSW,203,8.0,9.0,82,0.00,,,0.00,0,Wunderground v.1.15,2013-10-05 13:45:00,
2013-10-05 06:50:00,33.8,28.9,30.40,SSW,209,8.0,8.0,82,0.00,,,0.00,0,Wunderground v.1.15,2013-10-05 13:50:00,
2013-10-05 07:00:00,33.1,28.5,30.39,SSW,207,8.0,10.0,83,0.00,,,0.00,0,Wunderground v.1.15,2013-10-05 14:00:00,
2013-10-05 07:10:00,32.7,28.1,30.39,SSW,211,8.0,9.0,83,0.00,,,0.00,5,Wunderground v.1.15,2013-10-05 14:10:00,
2013-10-05 07:15:00,32.5,28.2,30.39,SSW,210,8.0,9.0,84,0.00,,,0.00,9,Wunderground v.1.15,2013-10-05 14:15:00,
2013-10-05 07:20:00,32.4,28.1,30.39,SSW,212,7.0,7.0,84,0.00,,,0.00,11,Wunderground v.1.15,2013-10-05 14:20:00,
2013-10-05 07:30:00,32.7,28.4,30.39,SW,218,8.0,8.0,84,0.00,,,0.00,14,Wunderground v.1.15,2013-10-05 14:30:00,
2013-10-05 07:35:00,33.1,28.8,30.39,SW,224,8.0,8.0,84,0.00,,,0.00,18,Wunderground v.1.15,2013-10-05 14:35:00,
2013-10-05 07:40:00,33.5,28.9,30.39,SW,216,7.0,7.0,83,0.00,,,0.00,19,Wunderground v.1.15,2013-10-05 14:40:00,
2013-10-05 07:45:00,33.5,28.9,30.40,SW,217,7.0,9.0,83,0.00,,,0.00,21,Wunderground v.1.15,2013-10-05 14:45:00,
2013-10-05 07:50:00,33.8,29.2,30.39,SW,221,7.0,7.0,83,0.00,,,0.00,26,Wunderground v.1.15,2013-10-05 14:50:00,
2013-10-05 07:55:00,34.2,29.3,30.39,SW,223,7.0,7.0,82,0.00,,,0.00,39,Wunderground v.1.15,2013-10-05 14:55:00,
2013-10-05 08:00:00,34.6,29.4,30.39,SW,218,7.0,7.0,81,0.00,,,0.00,51,Wunderground v.1.15,2013-10-05 15:00:00,
2013-10-05 08:10:00,35.7,29.8,30.39,SW,221,6.0,9.0,79,0.00,,,0.00,70,Wunderground v.1.15,2013-10-05 15:10:00,
2013-10-05 08:15:00,36.2,30.0,30.39,SW,219,7.0,9.0,78,0.00,,,0.00,95,Wunderground v.1.15,2013-10-05 15:15:00,
2013-10-05 08:20:00,36.5,30.0,30.40,SSW,211,7.0,8.0,77,0.00,,,0.00,111,Wunderground v.1.15,2013-10-05 15:20:00,
2013-10-05 08:25:00,36.8,30.3,30.40,SW,222,7.0,8.0,77,0.00,,,0.00,130,Wunderground v.1.15,2013-10-05 15:25:00,
2013-10-05 08:35:00,37.4,30.2,30.40,SW,220,6.0,9.0,75,0.00,,,0.00,163,Wunderground v.1.15,2013-10-05 15:35:00,
2013-10-05 08:40:00,37.9,30.7,30.40,SW,220,6.0,6.0,75,0.00,,,0.00,183,Wunderground v.1.15,2013-10-05 15:40:00,
2013-10-05 08:45:00,38.7,31.1,30.40,SW,216,6.0,6.0,74,0.00,,,0.00,199,Wunderground v.1.15,2013-10-05 15:45:00,
2013-10-05 08:50:00,39.3,31.4,30.39,SW,216,6.0,6.0,73,0.00,,,0.00,207,Wunderground v.1.15,2013-10-05 15:50:00,
2013-10-05 08:55:00,39.8,31.5,30.39,SSW,213,7.0,7.0,72,0.00,,,0.00,241,Wunderground v.1.15,2013-10-05 15:55:00,
2013-10-05 09:00:00,40.5,32.2,30.39,SW,216,7.0,7.0,72,0.00,,,0.00,258,Wunderground v.1.15,2013-10-05 16:00:00,
2013-10-05 09:10:00,41.5,32.4,30.39,SW,221,7.0,7.0,70,0.00,,,0.00,290,Wunderground v.1.15,2013-10-05 16:10:00,
2013-10-05 09:15:00,41.9,32.5,30.39,SW,227,7.0,8.0,69,0.00,,,0.00,299,Wunderground v.1.15,2013-10-05 16:15:00,
2013-10-05 09:20:00,42.4,32.9,30.39,SW,219,8.0,8.0,69,0.00,,,0.00,322,Wunderground v.1.15,2013-10-05 16:20:00,
2013-10-05 09:25:00,43.0,33.5,30.39,SW,221,8.0,9.0,69,0.00,,,0.00,316,Wunderground v.1.15,2013-10-05 16:25:00,
2013-10-05 09:30:00,43.6,33.4,30.39,SSW,202,9.0,9.0,67,0.00,,,0.00,339,Wunderground v.1.15,2013-10-05 16:30:00,
2013-10-05 09:40:00,46.6,34.7,30.38,South,186,7.0,7.0,63,0.00,,,0.00,350,Wunderground v.1.15,2013-10-05 16:40:00,
2013-10-05 09:45:00,49.6,33.6,30.39,South,188,7.0,7.0,54,0.00,,,0.00,362,Wunderground v.1.15,2013-10-05 16:45:00,
2013-10-05 09:49:00,51.2,33.2,30.39,SW,218,4.0,4.0,50,0.00,,,0.00,415,Wunderground v.1.15,2013-10-05 16:49:00,
2013-10-05 09:54:00,52.0,32.9,30.39,South,185,4.0,4.0,48,0.00,,,0.00,417,Wunderground v.1.15,2013-10-05 16:54:00,
2013-10-05 10:00:00,52.3,33.2,30.39,SE,140,4.0,13.0,48,0.00,,,0.00,425,Wunderground v.1.15,2013-10-05 17:00:00,
2013-10-05 10:09:00,53.0,33.3,30.39,SSE,165,3.0,3.0,47,0.00,,,0.00,418,Wunderground v.1.15,2013-10-05 17:09:00,
2013-10-05 10:14:00,53.6,33.8,30.38,SSE,153,2.0,5.0,47,0.00,,,0.00,424,Wunderground v.1.15,2013-10-05 17:14:00,
2013-10-05 10:19:00,54.3,33.4,30.38,SSE,151,2.0,8.0,45,0.00,,,0.00,464,Wunderground v.1.15,2013-10-05 17:19:00,
2013-10-05 10:24:00,55.0,32.3,30.38,SSE,153,3.0,8.0,42,0.00,,,0.00,508,Wunderground v.1.15,2013-10-05 17:24:00,
2013-10-05 10:29:00,56.0,32.6,30.38,SE,128,3.0,4.0,41,0.00,,,0.00,487,Wunderground v.1.15,2013-10-05 17:29:00,
2013-10-05 10:35:00,56.6,32.5,30.38,SE,142,2.0,4.0,40,0.00,,,0.00,468,Wunderground v.1.15,2013-10-05 17:35:00,
2013-10-05 10:40:00,56.9,30.9,30.38,SSE,158,3.0,3.0,37,0.00,,,0.00,520,Wunderground v.1.15,2013-10-05 17:40:00,
2013-10-05 10:50:00,57.4,30.6,30.38,SSE,157,3.0,3.0,36,0.00,,,0.00,501,Wunderground v.1.15,2013-10-05 17:50:00,
2013-10-05 10:55:00,58.0,30.5,30.37,SE,124,3.0,3.0,35,0.00,,,0.00,483,Wunderground v.1.15,2013-10-05 17:55:00,
2013-10-05 11:00:00,58.3,30.7,30.38,SE,140,3.0,7.0,35,0.00,,,0.00,517,Wunderground v.1.15,2013-10-05 18:00:00,
2013-10-05 11:10:00,59.1,31.4,30.37,SSE,152,3.0,3.0,35,0.00,,,0.00,589,Wunderground v.1.15,2013-10-05 18:10:00,
2013-10-05 11:19:00,59.7,30.5,30.37,East,92,4.0,4.0,33,0.00,,,0.00,550,Wunderground v.1.15,2013-10-05 18:19:00,
2013-10-05 11:24:00,59.8,31.3,30.36,ESE,105,4.0,4.0,34,0.00,,,0.00,592,Wunderground v.1.15,2013-10-05 18:24:00,
2013-10-05 11:29:00,60.2,31.7,30.36,SSE,155,4.0,4.0,34,0.00,,,0.00,612,Wunderground v.1.15,2013-10-05 18:29:00,
2013-10-05 11:34:00,60.9,32.3,30.36,SE,144,4.0,5.0,34,0.00,,,0.00,608,Wunderground v.1.15,2013-10-05 18:34:00,
2013-10-05 11:39:00,61.2,31.1,30.36,SSE,149,3.0,3.0,32,0.00,,,0.00,628,Wunderground v.1.15,2013-10-05 18:39:00,
2013-10-05 11:45:00,61.1,31.0,30.35,SSE,147,3.0,3.0,32,0.00,,,0.00,617,Wunderground v.1.15,2013-10-05 18:45:00,
2013-10-05 11:50:00,61.5,31.3,30.35,ESE,106,3.0,3.0,32,0.00,,,0.00,633,Wunderground v.1.15,2013-10-05 18:50:00,
2013-10-05 11:55:00,62.0,31.0,30.35,SSE,166,3.0,3.0,31,0.00,,,0.00,650,Wunderground v.1.15,2013-10-05 18:55:00,
2013-10-05 12:00:00,62.1,31.1,30.35,SSE,153,4.0,4.0,31,0.00,,,0.00,647,Wunderground v.1.15,2013-10-05 19:00:00,
2013-10-05 12:10:00,63.2,30.4,30.34,SSE,155,2.0,2.0,29,0.00,,,0.00,638,Wunderground v.1.15,2013-10-05 19:10:00,
2013-10-05 12:20:00,63.5,32.3,30.34,East,96,3.0,4.0,31,0.00,,,0.00,661,Wunderground v.1.15,2013-10-05 19:20:00,
2013-10-05 12:25:00,64.3,32.2,30.34,SSE,162,2.0,4.0,30,0.00,,,0.00,666,Wunderground v.1.15,2013-10-05 19:25:00,
2013-10-05 12:30:00,64.9,31.9,30.34,SSE,153,1.0,8.0,29,0.00,,,0.00,671,Wunderground v.1.15,2013-10-05 19:30:00,
2013-10-05 12:35:00,64.3,31.3,30.34,ESE,103,2.0,8.0,29,0.00,,,0.00,605,Wunderground v.1.15,2013-10-05 19:35:00,
2013-10-05 12:40:00,64.5,32.4,30.33,SSE,159,2.0,5.0,30,0.00,,,0.00,635,Wunderground v.1.15,2013-10-05 19:40:00,
2013-10-05 12:45:00,64.4,30.6,30.33,ESE,107,2.0,5.0,28,0.00,,,0.00,664,Wunderground v.1.15,2013-10-05 19:45:00,
2013-10-05 12:55:00,66.1,32.9,30.33,SSE,147,1.0,2.0,29,0.00,,,0.00,671,Wunderground v.1.15,2013-10-05 19:55:00,
2013-10-05 13:00:00,65.6,31.6,30.32,SE,137,1.0,1.0,28,0.00,,,0.00,668,Wunderground v.1.15,2013-10-05 20:00:00,
2013-10-05 13:10:00,66.8,32.6,30.31,SSE,154,1.0,2.0,28,0.00,,,0.00,668,Wunderground v.1.15,2013-10-05 20:10:00,
2013-10-05 13:15:00,66.8,30.8,30.31,ESE,108,1.0,5.0,26,0.00,,,0.00,668,Wunderground v.1.15,2013-10-05 20:15:00,
2013-10-05 13:25:00,67.4,30.3,30.31,SSE,151,1.0,1.0,25,0.00,,,0.00,664,Wunderground v.1.15,2013-10-05 20:25:00,
2013-10-05 13:30:00,67.8,31.6,30.30,SE,138,1.0,1.0,26,0.00,,,0.00,664,Wunderground v.1.15,2013-10-05 20:30:00,
2013-10-05 13:35:00,68.0,29.8,30.30,SE,136,1.0,1.0,24,0.00,,,0.00,661,Wunderground v.1.15,2013-10-05 20:35:00,
2013-10-05 13:40:00,68.3,33.0,30.30,SE,145,2.0,2.0,27,0.00,,,0.00,659,Wunderground v.1.15,2013-10-05 20:40:00,
2013-10-05 13:45:00,69.9,32.5,30.29,South,188,1.0,2.0,25,0.00,,,0.00,656,Wunderground v.1.15,2013-10-05 20:45:00,
2013-10-05 13:50:00,70.0,31.5,30.29,SSW,205,2.0,7.0,24,0.00,,,0.00,652,Wunderground v.1.15,2013-10-05 20:50:00,
2013-10-05 14:00:00,69.1,31.8,30.29,SE,126,2.0,2.0,25,0.00,,,0.00,643,Wunderground v.1.15,2013-10-05 21:00:00,
2013-10-05 14:10:00,68.9,31.6,30.28,ESE,102,1.0,1.0,25,0.00,,,0.00,633,Wunderground v.1.15,2013-10-05 21:10:00,
2013-10-05 14:15:00,69.4,31.0,30.27,ESE,117,0.0,1.0,24,0.00,,,0.00,629,Wunderground v.1.15,2013-10-05 21:15:00,
2013-10-05 14:20:00,68.9,30.6,30.27,ESE,112,2.0,2.0,24,0.00,,,0.00,624,Wunderground v.1.15,2013-10-05 21:20:00,
2013-10-05 14:30:00,69.9,31.4,30.27,ENE,69,2.0,2.0,24,0.00,,,0.00,612,Wunderground v.1.15,2013-10-05 21:30:00,
2013-10-05 14:35:00,70.9,32.3,30.27,South,173,1.0,2.0,24,0.00,,,0.00,605,Wunderground v.1.15,2013-10-05 21:35:00,
2013-10-05 14:40:00,70.8,30.0,30.26,ESE,105,1.0,1.0,22,0.00,,,0.00,599,Wunderground v.1.15,2013-10-05 21:40:00,
2013-10-05 14:45:00,70.6,31.0,30.26,East,97,1.0,1.0,23,0.00,,,0.00,591,Wunderground v.1.15,2013-10-05 21:45:00,
2013-10-05 14:50:00,71.8,32.0,30.26,South,178,2.0,2.0,23,0.00,,,0.00,587,Wunderground v.1.15,2013-10-05 21:50:00,
2013-10-05 14:55:00,72.4,30.2,30.26,SSE,148,1.0,2.0,21,0.00,,,0.00,577,Wunderground v.1.15,2013-10-05 21:55:00,
2013-10-05 15:00:00,72.1,30.0,30.26,South,171,1.0,1.0,21,0.00,,,0.00,568,Wunderground v.1.15,2013-10-05 22:00:00,
2013-10-05 15:10:00,71.2,29.2,30.25,SE,126,1.0,1.0,21,0.00,,,0.00,550,Wunderground v.1.15,2013-10-05 22:10:00,
2013-10-05 15:15:00,71.0,30.2,30.25,ESE,109,1.0,1.0,22,0.00,,,0.00,540,Wunderground v.1.15,2013-10-05 22:15:00,
2013-10-05 15:20:00,70.6,38.5,30.25,North,360,1.0,4.0,31,0.00,,,0.00,531,Wunderground v.1.15,2013-10-05 22:20:00,
2013-10-05 15:25:00,69.2,38.9,30.25,NNE,30,2.0,4.0,33,0.00,,,0.00,519,Wunderground v.1.15,2013-10-05 22:25:00,
2013-10-05 15:34:00,67.2,40.0,30.25,North,355,6.0,7.0,37,0.00,,,0.00,497,Wunderground v.1.15,2013-10-05 22:34:00,
2013-10-05 15:40:00,66.5,40.1,30.25,NNE,13,8.0,8.0,38,0.00,,,0.00,487,Wunderground v.1.15,2013-10-05 22:40:00,
2013-10-05 15:45:00,66.2,40.5,30.25,NE,36,8.0,8.0,39,0.00,,,0.00,475,Wunderground v.1.15,2013-10-05 22:45:00,
2013-10-05 15:50:00,66.0,41.0,30.24,North,5,8.0,8.0,40,0.00,,,0.00,462,Wunderground v.1.15,2013-10-05 22:50:00,
2013-10-05 15:55:00,65.9,41.5,30.24,North,5,8.0,11.0,41,0.00,,,0.00,454,Wunderground v.1.15,2013-10-05 22:55:00,
2013-10-05 16:00:00,65.7,41.3,30.24,North,360,9.0,11.0,41,0.00,,,0.00,438,Wunderground v.1.15,2013-10-05 23:00:00,
2013-10-05 16:09:00,64.9,40.6,30.24,North,360,10.0,10.0,41,0.00,,,0.00,417,Wunderground v.1.15,2013-10-05 23:09:00,
2013-10-05 16:14:00,64.7,41.1,30.24,North,5,10.0,10.0,42,0.00,,,0.00,401,Wunderground v.1.15,2013-10-05 23:14:00,
2013-10-05 16:19:00,64.6,41.6,30.24,NNE,33,9.0,9.0,43,0.00,,,0.00,390,Wunderground v.1.15,2013-10-05 23:19:00,
2013-10-05 16:24:00,64.7,41.1,30.24,North,355,8.0,9.0,42,0.00,,,0.00,376,Wunderground v.1.15,2013-10-05 23:24:00,
2013-10-05 16:30:00,64.7,41.1,30.23,NE,34,8.0,10.0,42,0.00,,,0.00,355,Wunderground v.1.15,2013-10-05 23:30:00,
2013-10-05 16:35:00,64.6,41.0,30.24,North,360,8.0,10.0,42,0.00,,,0.00,348,Wunderground v.1.15,2013-10-05 23:35:00,
2013-10-05 16:40:00,64.6,40.4,30.23,NNE,15,8.0,12.0,41,0.00,,,0.00,338,Wunderground v.1.15,2013-10-05 23:40:00,
2013-10-05 16:45:00,64.3,40.1,30.23,NE,36,9.0,12.0,41,0.00,,,0.00,322,Wunderground v.1.15,2013-10-05 23:45:00,
2013-10-05 16:50:00,64.3,39.4,30.23,North,9,9.0,9.0,40,0.00,,,0.00,308,Wunderground v.1.15,2013-10-05 23:50:00,
2013-10-05 16:55:00,64.5,39.6,30.23,NE,44,8.0,9.0,40,0.00,,,0.00,294,Wunderground v.1.15,2013-10-05 23:55:00,
2013-10-05 17:00:00,64.4,38.9,30.22,NNE,16,8.0,13.0,39,0.00,,,0.00,271,Wunderground v.1.15,2013-10-06 00:00:00,
2013-10-05 17:10:00,64.3,38.8,30.22,NE,37,8.0,8.0,39,0.00,,,0.00,243,Wunderground v.1.15,2013-10-06 00:10:00,
2013-10-05 17:15:00,64.3,38.8,30.22,NNE,13,8.0,9.0,39,0.00,,,0.00,227,Wunderground v.1.15,2013-10-06 00:15:00,
2013-10-05 17:20:00,64.3,38.8,30.22,North,9,7.0,7.0,39,0.00,,,0.00,209,Wunderground v.1.15,2013-10-06 00:20:00,
2013-10-05 17:25:00,64.2,38.7,30.22,North,9,7.0,7.0,39,0.00,,,0.00,188,Wunderground v.1.15,2013-10-06 00:25:00,
2013-10-05 17:30:00,64.0,38.5,30.22,North,360,8.0,8.0,39,0.00,,,0.00,169,Wunderground v.1.15,2013-10-06 00:30:00,
2013-10-05 17:35:00,63.9,38.4,30.22,NNE,15,7.0,8.0,39,0.00,,,0.00,149,Wunderground v.1.15,2013-10-06 00:35:00,
2013-10-05 17:45:00,63.5,38.7,30.22,NE,34,8.0,12.0,40,0.00,,,0.00,118,Wunderground v.1.15,2013-10-06 00:45:00,
2013-10-05 17:50:00,63.4,38.0,30.22,North,11,8.0,9.0,39,0.00,,,0.00,98,Wunderground v.1.15,2013-10-06 00:50:00,
2013-10-05 17:55:00,63.2,38.5,30.22,North,5,8.0,9.0,40,0.00,,,0.00,81,Wunderground v.1.15,2013-10-06 00:55:00,
2013-10-05 18:00:00,63.1,37.7,30.22,NNE,19,7.0,7.0,39,0.00,,,0.00,63,Wunderground v.1.15,2013-10-06 01:00:00,
2013-10-05 18:10:00,62.7,37.4,30.21,North,360,8.0,8.0,39,0.00,,,0.00,35,Wunderground v.1.15,2013-10-06 01:10:00,
2013-10-05 18:15:00,62.6,37.3,30.22,North,5,7.0,8.0,39,0.00,,,0.00,26,Wunderground v.1.15,2013-10-06 01:15:00,
2013-10-05 18:20:00,62.4,37.1,30.22,North,5,7.0,7.0,39,0.00,,,0.00,19,Wunderground v.1.15,2013-10-06 01:20:00,
2013-10-05 18:25:00,62.3,36.4,30.21,North,5,7.0,7.0,38,0.00,,,0.00,12,Wunderground v.1.15,2013-10-06 01:25:00,
2013-10-05 18:30:00,62.0,36.7,30.22,NNE,21,7.0,8.0,39,0.00,,,0.00,9,Wunderground v.1.15,2013-10-06 01:30:00,
2013-10-05 18:35:00,62.0,36.7,30.21,NNE,17,7.0,8.0,39,0.00,,,0.00,7,Wunderground v.1.15,2013-10-06 01:35:00,
2013-10-05 18:40:00,61.6,37.0,30.22,North,5,5.0,6.0,40,0.00,,,0.00,0,Wunderground v.1.15,2013-10-06 01:40:00,
2013-10-05 18:50:00,61.3,36.1,30.21,NNE,25,4.0,4.0,39,0.00,,,0.00,0,Wunderground v.1.15,2013-10-06 01:50:00,
2013-10-05 18:55:00,61.2,36.0,30.21,North,5,4.0,7.0,39,0.00,,,0.00,0,Wunderground v.1.15,2013-10-06 01:55:00,
2013-10-05 19:00:00,61.1,35.9,30.22,North,5,5.0,5.0,39,0.00,,,0.00,0,Wunderground v.1.15,2013-10-06 02:00:00,
2013-10-05 19:10:00,60.4,35.9,30.22,North,5,3.0,3.0,40,0.00,,,0.00,0,Wunderground v.1.15,2013-10-06 02:10:00,
2013-10-05 19:20:00,59.9,36.1,30.21,NNW,342,4.0,7.0,41,0.00,,,0.00,0,Wunderground v.1.15,2013-10-06 02:20:00,
2013-10-05 19:25:00,60.2,36.4,30.21,NNW,346,5.0,7.0,41,0.00,,,0.00,0,Wunderground v.1.15,2013-10-06 02:25:00,
2013-10-05 19:30:00,59.7,36.6,30.21,NNW,348,5.0,5.0,42,0.00,,,0.00,0,Wunderground v.1.15,2013-10-06 02:30:00,
2013-10-05 19:35:00,59.3,36.8,30.21,NNW,348,4.0,6.0,43,0.00,,,0.00,0,Wunderground v.1.15,2013-10-06 02:35:00,
2013-10-05 19:40:00,59.0,36.5,30.21,NNW,348,4.0,4.0,43,0.00,,,0.00,0,Wunderground v.1.15,2013-10-06 02:40:00,
2013-10-05 19:45:00,58.5,36.6,30.21,NNW,348,4.0,4.0,44,0.00,,,0.00,0,Wunderground v.1.15,2013-10-06 02:45:00,
2013-10-05 19:55:00,58.4,37.1,30.21,NNW,348,3.0,4.0,45,0.00,,,0.00,0,Wunderground v.1.15,2013-10-06 02:55:00,
2013-10-05 20:00:00,58.1,36.9,30.21,North,350,3.0,3.0,45,0.00,,,0.00,0,Wunderground v.1.15,2013-10-06 03:00:00,
2013-10-05 20:10:00,58.1,36.9,30.21,North,350,4.0,4.0,45,0.00,,,0.00,0,Wunderground v.1.15,2013-10-06 03:10:00,
2013-10-05 20:15:00,58.3,37.0,30.21,North,350,5.0,5.0,45,0.00,,,0.00,0,Wunderground v.1.15,2013-10-06 03:15:00,
2013-10-05 20:20:00,58.4,37.1,30.21,North,349,4.0,4.0,45,0.00,,,0.00,0,Wunderground v.1.15,2013-10-06 03:20:00,
2013-10-05 20:25:00,58.3,37.0,30.21,North,350,4.0,6.0,45,0.00,,,0.00,0,Wunderground v.1.15,2013-10-06 03:25:00,
2013-10-05 20:30:00,58.3,37.0,30.21,North,349,5.0,5.0,45,0.00,,,0.00,0,Wunderground v.1.15,2013-10-06 03:30:00,
2013-10-05 20:35:00,58.2,36.9,30.22,North,350,5.0,6.0,45,0.00,,,0.00,0,Wunderground v.1.15,2013-10-06 03:35:00,
2013-10-05 20:40:00,58.3,37.0,30.22,North,355,4.0,4.0,45,0.00,,,0.00,0,Wunderground v.1.15,2013-10-06 03:40:00,
2013-10-05 20:45:00,58.2,36.9,30.22,North,355,4.0,4.0,45,0.00,,,0.00,0,Wunderground v.1.15,2013-10-06 03:45:00,
2013-10-05 20:50:00,57.3,36.7,30.22,North,355,2.0,2.0,46,0.00,,,0.00,0,Wunderground v.1.15,2013-10-06 03:50:00,
2013-10-05 21:00:00,55.0,36.7,30.22,North,355,0.0,0.0,50,0.00,,,0.00,0,Wunderground v.1.15,2013-10-06 04:00:00,
2013-10-05 21:05:00,54.6,36.8,30.22,North,355,0.0,0.0,51,0.00,,,0.00,0,Wunderground v.1.15,2013-10-06 04:05:00,
2013-10-05 21:10:00,55.0,36.7,30.22,North,355,0.0,0.0,50,0.00,,,0.00,0,Wunderground v.1.15,2013-10-06 04:10:00,
2013-10-05 21:15:00,55.1,36.8,30.22,North,355,0.0,0.0,50,0.00,,,0.00,0,Wunderground v.1.15,2013-10-06 04:15:00,
2013-10-05 21:20:00,54.4,36.6,30.22,North,355,0.0,0.0,51,0.00,,,0.00,0,Wunderground v.1.15,2013-10-06 04:20:00,
2013-10-05 21:24:00,53.7,36.5,30.22,North,355,0.0,0.0,52,0.00,,,0.00,0,Wunderground v.1.15,2013-10-06 04:24:00,
2013-10-05 21:30:00,53.5,36.3,30.22,North,355,0.0,0.0,52,0.00,,,0.00,0,Wunderground v.1.15,2013-10-06 04:30:00,
2013-10-05 21:35:00,53.2,36.5,30.22,North,355,0.0,0.0,53,0.00,,,0.00,0,Wunderground v.1.15,2013-10-06 04:35:00,
2013-10-05 21:40:00,52.9,36.2,30.22,North,355,0.0,0.0,53,0.00,,,0.00,0,Wunderground v.1.15,2013-10-06 04:40:00,
2013-10-05 21:45:00,52.8,36.1,30.22,North,355,0.0,0.0,53,0.00,,,0.00,0,Wunderground v.1.15,2013-10-06 04:45:00,
2013-10-05 21:50:00,52.3,36.1,30.22,North,355,0.0,0.0,54,0.00,,,0.00,0,Wunderground v.1.15,2013-10-06 04:50:00,
2013-10-05 21:55:00,51.7,36.0,30.22,North,355,0.0,0.0,55,0.00,,,0.00,0,Wunderground v.1.15,2013-10-06 04:55:00,
2013-10-05 22:00:00,51.6,35.9,30.22,North,355,0.0,0.0,55,0.00,,,0.00,0,Wunderground v.1.15,2013-10-06 05:00:00,
2013-10-05 22:04:00,51.8,36.1,30.22,North,355,0.0,0.0,55,0.00,,,0.00,0,Wunderground v.1.15,2013-10-06 05:04:00,
2013-10-05 22:09:00,52.0,35.9,30.22,North,355,0.0,0.0,54,0.00,,,0.00,0,Wunderground v.1.15,2013-10-06 05:09:00,
2013-10-05 22:14:00,51.4,36.2,30.22,North,355,0.0,0.0,56,0.00,,,0.00,0,Wunderground v.1.15,2013-10-06 05:14:00,
2013-10-05 22:20:00,52.0,36.3,30.22,North,355,0.0,0.0,55,0.00,,,0.00,0,Wunderground v.1.15,2013-10-06 05:20:00,
2013-10-05 22:25:00,51.6,35.9,30.22,North,355,0.0,0.0,55,0.00,,,0.00,0,Wunderground v.1.15,2013-10-06 05:25:00,
2013-10-05 22:30:00,51.0,36.3,30.22,North,355,0.0,0.0,57,0.00,,,0.00,0,Wunderground v.1.15,2013-10-06 05:30:00,
2013-10-05 22:35:00,50.3,36.1,30.22,North,355,0.0,0.0,58,0.00,,,0.00,0,Wunderground v.1.15,2013-10-06 05:35:00,
2013-10-05 22:40:00,50.3,36.1,30.22,North,355,0.0,0.0,58,0.00,,,0.00,0,Wunderground v.1.15,2013-10-06 05:40:00,
2013-10-05 22:49:00,50.0,36.2,30.22,North,355,0.0,0.0,59,0.00,,,0.00,0,Wunderground v.1.15,2013-10-06 05:49:00,
2013-10-05 22:55:00,48.6,35.7,30.22,North,355,0.0,0.0,61,0.00,,,0.00,0,Wunderground v.1.15,2013-10-06 05:55:00,
2013-10-05 23:00:00,47.5,35.9,30.22,North,355,0.0,0.0,64,0.00,,,0.00,0,Wunderground v.1.15,2013-10-06 06:00:00,
2013-10-05 23:05:00,47.0,35.8,30.23,North,355,0.0,0.0,65,0.00,,,0.00,0,Wunderground v.1.15,2013-10-06 06:05:00,
2013-10-05 23:10:00,46.6,35.8,30.23,North,355,0.0,0.0,66,0.00,,,0.00,0,Wunderground v.1.15,2013-10-06 06:10:00,
2013-10-05 23:15:00,46.1,35.7,30.23,North,355,0.0,0.0,67,0.00,,,0.00,0,Wunderground v.1.15,2013-10-06 06:15:00,
2013-10-05 23:20:00,45.8,35.5,30.23,North,355,0.0,0.0,67,0.00,,,0.00,0,Wunderground v.1.15,2013-10-06 06:20:00,
2013-10-05 23:25:00,45.9,35.9,30.23,North,355,0.0,0.0,68,0.00,,,0.00,0,Wunderground v.1.15,2013-10-06 06:25:00,
2013-10-05 23:30:00,46.0,36.0,30.23,North,355,0.0,0.0,68,0.00,,,0.00,0,Wunderground v.1.15,2013-10-06 06:30:00,
2013-10-05 23:40:00,46.5,36.1,30.23,North,355,0.0,0.0,67,0.00,,,0.00,0,Wunderground v.1.15,2013-10-06 06:40:00,
2013-10-05 23:45:00,46.7,36.3,30.23,North,355,0.0,0.0,67,0.00,,,0.00,0,Wunderground v.1.15,2013-10-06 06:45:00,
2013-10-05 23:50:00,46.3,36.3,30.23,North,355,0.0,0.0,68,0.00,,,0.00,0,Wunderground v.1.15,2013-10-06 06:50:00,
2013-10-05 23:55:00,46.3,36.3,30.23,North,355,0.0,0.0,68,0.00,,,0.00,0,Wunderground v.1.15,2013-10-06 06:55:00,